PWSweather.com
Personal Weather Stations
Station Observations
SHAHALMS1
Eftra, Falkenberg, HA

EftraFalkenberg, HA

Lat: 56.85, Lon: 12.65

Elevation: 140

Station Type:

http://hem.passagen.se/risarp101

Latest ConditionsUpdated 10:40:02 AM GMT+1 Tuesday, Dec 10, 2019
Currently Today's Max Today's Min Today's Average
Temperature 30.0°F-1.1°C 33.8°F1.0°C 27.3°F-2.6°C 29.9°F-1.2°C
Dew Point 23.1°F-4.9°C 23.6°F-4.7°C 19.7°F-6.8°C 21.4°F-5.9°C
Winds 0.1 mph E0.2 kmh E 18.3 mph -29.5 kmh - - 5.2 mph 8.4 kmh
Wind Gusts 4.3 mph6.9 kmh 42.6 mph68.6 kmh - -
Humidity 75% 76% 65% 70%
Pressure 30.07 in1018.3 mb 30.07 in1018.3 mb 29.62 in1003.0 mb -
Hour Temp Dew Point Humidity Winds Wind Gusts Pressure Precip Precip Rate Daily Precip Total
10:40 AM 30.0°F-1.1°C 23.1°F-4.9°C 75% 0.1 mph E0.2 kmh E 4.3 mph6.9 kmh 30.07 in1018.3 mb 0.00 in0.0 mm 0.00 in0.0 mm 0.00 in0.0 mm
10:30 AM 29.7°F-1.3°C 22.7°F-5.2°C 75% Calm Calm -- 30.07 in1018.3 mb 0.00 in0.0 mm 0.00 in0.0 mm 0.00 in0.0 mm
10:20 AM 29.3°F-1.5°C 22.4°F-5.3°C 75% 1.5 mph ESE2.4 kmh ESE 7.9 mph12.7 kmh 30.07 in1018.3 mb 0.00 in0.0 mm 0.00 in0.0 mm 0.00 in0.0 mm
10:10 AM 29.1°F-1.6°C 22.2°F-5.4°C 75% 3.1 mph ESE5.0 kmh ESE 9.7 mph15.6 kmh 30.07 in1018.3 mb 0.00 in0.0 mm 0.00 in0.0 mm 0.00 in0.0 mm
10:00 AM 28.8°F-1.8°C 22.1°F-5.5°C 76% 3.2 mph ESE5.1 kmh ESE 9.3 mph15.0 kmh 30.07 in1018.3 mb 0.00 in0.0 mm 0.00 in0.0 mm 0.00 in0.0 mm
09:50 AM 28.6°F-1.9°C 22.0°F-5.6°C 76% 2.1 mph E3.4 kmh E 7.2 mph11.6 kmh 30.07 in1018.3 mb 0.00 in0.0 mm 0.00 in0.0 mm 0.00 in0.0 mm
09:40 AM 28.4°F-2.0°C 21.8°F-5.7°C 76% 2.3 mph ESE3.7 kmh ESE 10.0 mph16.1 kmh 30.07 in1018.3 mb 0.00 in0.0 mm 0.00 in0.0 mm 0.00 in0.0 mm
09:30 AM 27.9°F-2.3°C 21.3°F-5.9°C 76% Calm Calm -- 30.04 in1017.3 mb 0.00 in0.0 mm 0.00 in0.0 mm 0.00 in0.0 mm
09:20 AM 27.7°F-2.4°C 20.8°F-6.2°C 75% 0.5 mph S0.8 kmh S 6.8 mph10.9 kmh 30.04 in1017.3 mb 0.00 in0.0 mm 0.00 in0.0 mm 0.00 in0.0 mm
09:10 AM 27.5°F-2.5°C 20.3°F-6.5°C 74% Calm Calm -- 30.04 in1017.3 mb 0.00 in0.0 mm 0.00 in0.0 mm 0.00 in0.0 mm
09:00 AM 27.5°F-2.5°C 20.0°F-6.7°C 73% Calm Calm -- 30.04 in1017.3 mb 0.00 in0.0 mm 0.00 in0.0 mm 0.00 in0.0 mm
08:50 AM 27.5°F-2.5°C 20.0°F-6.7°C 73% 0.2 mph W0.3 kmh W 2.5 mph4.0 kmh 30.04 in1017.3 mb 0.00 in0.0 mm 0.00 in0.0 mm 0.00 in0.0 mm
08:40 AM 27.7°F-2.4°C 20.5°F-6.4°C 74% Calm Calm -- 30.04 in1017.3 mb 0.00 in0.0 mm 0.00 in0.0 mm 0.00 in0.0 mm
08:30 AM 27.7°F-2.4°C 20.5°F-6.4°C 74% Calm Calm -- 30.01 in1016.3 mb 0.00 in0.0 mm 0.00 in0.0 mm 0.00 in0.0 mm
08:20 AM 27.5°F-2.5°C 20.3°F-6.5°C 74% Calm Calm -- 30.01 in1016.3 mb 0.00 in0.0 mm 0.00 in0.0 mm 0.00 in0.0 mm
08:10 AM 27.5°F-2.5°C 20.3°F-6.5°C 74% Calm Calm -- 30.01 in1016.3 mb 0.00 in0.0 mm 0.00 in0.0 mm 0.00 in0.0 mm
08:00 AM 27.3°F-2.6°C 20.1°F-6.6°C 74% 0.2 mph W0.3 kmh W 3.2 mph5.1 kmh 30.01 in1016.3 mb 0.00 in0.0 mm 0.00 in0.0 mm 0.00 in0.0 mm
07:50 AM 27.3°F-2.6°C 19.8°F-6.8°C 73% 1.3 mph W2.1 kmh W 4.3 mph6.9 kmh 30.01 in1016.3 mb 0.00 in0.0 mm 0.00 in0.0 mm 0.00 in0.0 mm
07:40 AM 27.3°F-2.6°C 19.8°F-6.8°C 73% 0.5 mph W0.8 kmh W 3.9 mph6.3 kmh 30.01 in1016.3 mb 0.00 in0.0 mm 0.00 in0.0 mm 0.00 in0.0 mm
07:30 AM 27.3°F-2.6°C 19.8°F-6.8°C 73% Calm Calm -- 30.01 in1016.3 mb 0.00 in0.0 mm 0.00 in0.0 mm 0.00 in0.0 mm
07:20 AM 27.3°F-2.6°C 19.8°F-6.8°C 73% 0.7 mph W1.1 kmh W 4.3 mph6.9 kmh 30.01 in1016.3 mb 0.00 in0.0 mm 0.00 in0.0 mm 0.00 in0.0 mm
07:10 AM 27.3°F-2.6°C 19.8°F-6.8°C 73% 1.1 mph W1.8 kmh W 5.4 mph8.7 kmh 29.98 in1015.2 mb 0.00 in0.0 mm 0.00 in0.0 mm 0.00 in0.0 mm
07:00 AM 27.5°F-2.5°C 19.7°F-6.8°C 72% 2.8 mph W4.5 kmh W 5.0 mph8.0 kmh 29.95 in1014.2 mb 0.00 in0.0 mm 0.00 in0.0 mm 0.00 in0.0 mm
06:50 AM 27.7°F-2.4°C 19.8°F-6.8°C 72% 2.8 mph W4.5 kmh W 5.7 mph9.2 kmh 29.95 in1014.2 mb 0.00 in0.0 mm 0.00 in0.0 mm 0.00 in0.0 mm
06:40 AM 27.7°F-2.4°C 19.8°F-6.8°C 72% Calm Calm -- 29.95 in1014.2 mb 0.00 in0.0 mm 0.00 in0.0 mm 0.00 in0.0 mm
06:30 AM 27.9°F-2.3°C 20.0°F-6.7°C 72% 0.3 mph W0.5 kmh W 3.9 mph6.3 kmh 29.95 in1014.2 mb 0.00 in0.0 mm 0.00 in0.0 mm 0.00 in0.0 mm
06:20 AM 28.0°F-2.2°C 20.2°F-6.6°C 72% 1.4 mph W2.3 kmh W 5.4 mph8.7 kmh 29.95 in1014.2 mb 0.00 in0.0 mm 0.00 in0.0 mm 0.00 in0.0 mm
06:10 AM 28.2°F-2.1°C 20.3°F-6.5°C 72% 0.9 mph W1.4 kmh W 4.3 mph6.9 kmh 29.92 in1013.2 mb 0.00 in0.0 mm 0.00 in0.0 mm 0.00 in0.0 mm
06:00 AM 28.2°F-2.1°C 20.0°F-6.7°C 71% 0.4 mph W0.6 kmh W 4.7 mph7.6 kmh 29.92 in1013.2 mb 0.00 in0.0 mm 0.00 in0.0 mm 0.00 in0.0 mm
05:50 AM 28.4°F-2.0°C 20.2°F-6.6°C 71% 0.1 mph W0.2 kmh W 2.1 mph3.4 kmh 29.92 in1013.2 mb 0.00 in0.0 mm 0.00 in0.0 mm 0.00 in0.0 mm
05:40 AM 28.6°F-1.9°C 20.4°F-6.4°C 71% Calm Calm -- 29.92 in1013.2 mb 0.00 in0.0 mm 0.00 in0.0 mm 0.00 in0.0 mm
05:30 AM 28.8°F-1.8°C 20.5°F-6.4°C 71% 0.3 mph W0.5 kmh W 3.6 mph5.8 kmh 29.89 in1012.2 mb 0.00 in0.0 mm 0.00 in0.0 mm 0.00 in0.0 mm
05:20 AM 28.9°F-1.7°C 21.0°F-6.1°C 72% 0.3 mph W0.5 kmh W 3.2 mph5.1 kmh 29.89 in1012.2 mb 0.00 in0.0 mm 0.00 in0.0 mm 0.00 in0.0 mm
05:10 AM 29.1°F-1.6°C 21.2°F-6.0°C 72% 1.1 mph NW1.8 kmh NW 5.7 mph9.2 kmh 29.89 in1012.2 mb 0.00 in0.0 mm 0.00 in0.0 mm 0.00 in0.0 mm
05:00 AM 29.1°F-1.6°C 21.2°F-6.0°C 72% 2.5 mph NW4.0 kmh NW 7.9 mph12.7 kmh 29.92 in1013.2 mb 0.00 in0.0 mm 0.00 in0.0 mm 0.00 in0.0 mm
04:50 AM 29.1°F-1.6°C 20.9°F-6.2°C 71% 1.8 mph WNW2.9 kmh WNW 6.1 mph9.8 kmh 29.92 in1013.2 mb 0.00 in0.0 mm 0.00 in0.0 mm 0.00 in0.0 mm
04:40 AM 29.3°F-1.5°C 20.7°F-6.3°C 70% 1.6 mph W2.6 kmh W 5.4 mph8.7 kmh 29.89 in1012.2 mb 0.00 in0.0 mm 0.00 in0.0 mm 0.00 in0.0 mm
04:30 AM 29.5°F-1.4°C 20.9°F-6.2°C 70% 2.7 mph NW4.3 kmh NW 8.6 mph13.8 kmh 29.86 in1011.2 mb 0.00 in0.0 mm 0.00 in0.0 mm 0.00 in0.0 mm
04:20 AM 29.8°F-1.2°C 21.2°F-6.0°C 70% 4.8 mph NW7.7 kmh NW 10.4 mph16.7 kmh 29.86 in1011.2 mb 0.00 in0.0 mm 0.00 in0.0 mm 0.00 in0.0 mm
04:10 AM 30.0°F-1.1°C 21.4°F-5.9°C 70% 7.3 mph NW11.7 kmh NW 11.8 mph19.0 kmh 29.83 in1010.2 mb 0.00 in0.0 mm 0.00 in0.0 mm 0.00 in0.0 mm
04:00 AM 30.2°F-1.0°C 21.6°F-5.8°C 70% 8.2 mph NW13.2 kmh NW 13.6 mph21.9 kmh 29.80 in1009.1 mb 0.00 in0.0 mm 0.00 in0.0 mm 0.00 in0.0 mm
03:50 AM 30.6°F-0.8°C 21.6°F-5.8°C 69% 6.5 mph NW10.5 kmh NW 12.9 mph20.8 kmh 29.80 in1009.1 mb 0.00 in0.0 mm 0.00 in0.0 mm 0.00 in0.0 mm
03:40 AM 30.7°F-0.7°C 21.8°F-5.7°C 69% 7.1 mph NW11.4 kmh NW 14.0 mph22.5 kmh 29.83 in1010.2 mb 0.00 in0.0 mm 0.00 in0.0 mm 0.00 in0.0 mm
03:30 AM 30.9°F-0.6°C 21.6°F-5.8°C 68% 6.3 mph NNW10.1 kmh NNW 10.4 mph16.7 kmh 29.80 in1009.1 mb 0.00 in0.0 mm 0.00 in0.0 mm 0.00 in0.0 mm
03:20 AM 31.1°F-0.5°C 21.8°F-5.7°C 68% 5.7 mph NW9.2 kmh NW 10.0 mph16.1 kmh 29.80 in1009.1 mb 0.00 in0.0 mm 0.00 in0.0 mm 0.00 in0.0 mm
03:10 AM 31.3°F-0.4°C 21.9°F-5.6°C 68% 6.0 mph NNW9.7 kmh NNW 11.5 mph18.5 kmh 29.80 in1009.1 mb 0.00 in0.0 mm 0.00 in0.0 mm 0.00 in0.0 mm
03:00 AM 31.5°F-0.3°C 22.1°F-5.5°C 68% 6.5 mph NW10.5 kmh NW 10.7 mph17.2 kmh 29.80 in1009.1 mb 0.00 in0.0 mm 0.00 in0.0 mm 0.00 in0.0 mm
02:50 AM 31.6°F-0.2°C 21.9°F-5.6°C 67% 7.6 mph NW12.2 kmh NW 12.9 mph20.8 kmh 29.80 in1009.1 mb 0.00 in0.0 mm 0.00 in0.0 mm 0.00 in0.0 mm
02:40 AM 32.0°F0.0°C 22.3°F-5.4°C 67% 9.0 mph NW14.5 kmh NW 16.1 mph25.9 kmh 29.77 in1008.1 mb 0.00 in0.0 mm 0.00 in0.0 mm 0.00 in0.0 mm
02:30 AM 32.0°F0.0°C 22.3°F-5.4°C 67% 9.7 mph NNW15.6 kmh NNW 17.5 mph28.2 kmh 29.77 in1008.1 mb 0.00 in0.0 mm 0.00 in0.0 mm 0.00 in0.0 mm
02:20 AM 32.2°F0.1°C 22.1°F-5.5°C 66% 11.4 mph NW18.3 kmh NW 19.7 mph31.7 kmh 29.77 in1008.1 mb 0.00 in0.0 mm 0.00 in0.0 mm 0.00 in0.0 mm
02:10 AM 32.4°F0.2°C 22.3°F-5.4°C 66% 12.0 mph NW19.3 kmh NW 21.8 mph35.1 kmh 29.77 in1008.1 mb 0.00 in0.0 mm 0.00 in0.0 mm 0.00 in0.0 mm
02:00 AM 32.4°F0.2°C 22.3°F-5.4°C 66% 11.9 mph NW19.2 kmh NW 20.0 mph32.2 kmh 29.74 in1007.1 mb 0.00 in0.0 mm 0.00 in0.0 mm 0.00 in0.0 mm
01:50 AM 32.7°F0.4°C 22.6°F-5.2°C 66% 13.3 mph NNW21.4 kmh NNW 23.6 mph38.0 kmh 29.74 in1007.1 mb 0.00 in0.0 mm 0.00 in0.0 mm 0.00 in0.0 mm
01:40 AM 32.7°F0.4°C 22.6°F-5.2°C 66% 14.9 mph NW24.0 kmh NW 30.8 mph49.6 kmh 29.71 in1006.1 mb 0.00 in0.0 mm 0.00 in0.0 mm 0.00 in0.0 mm
01:30 AM 32.9°F0.5°C 22.4°F-5.3°C 65% 14.2 mph NNW22.9 kmh NNW 25.1 mph40.4 kmh 29.71 in1006.1 mb 0.00 in0.0 mm 0.00 in0.0 mm 0.00 in0.0 mm
01:20 AM 33.1°F0.6°C 22.6°F-5.2°C 65% 13.4 mph NW21.6 kmh NW 24.3 mph39.1 kmh 29.71 in1006.1 mb 0.00 in0.0 mm 0.00 in0.0 mm 0.00 in0.0 mm
01:10 AM 33.3°F0.7°C 22.8°F-5.1°C 65% 13.6 mph NNW21.9 kmh NNW 27.6 mph44.4 kmh 29.71 in1006.1 mb 0.00 in0.0 mm 0.00 in0.0 mm 0.00 in0.0 mm
01:00 AM 33.6°F0.9°C 23.1°F-4.9°C 65% 14.6 mph NNW23.5 kmh NNW 27.6 mph44.4 kmh 29.68 in1005.1 mb 0.00 in0.0 mm 0.00 in0.0 mm 0.00 in0.0 mm
12:50 AM 33.6°F0.9°C 23.1°F-4.9°C 65% 15.0 mph NNW24.1 kmh NNW 29.7 mph47.8 kmh 29.68 in1005.1 mb 0.00 in0.0 mm 0.00 in0.0 mm 0.00 in0.0 mm
12:40 AM 33.8°F1.0°C 23.3°F-4.8°C 65% 18.3 mph NNW29.5 kmh NNW 30.8 mph49.6 kmh 29.68 in1005.1 mb 0.00 in0.0 mm 0.00 in0.0 mm 0.00 in0.0 mm
12:30 AM 33.6°F0.9°C 23.5°F-4.7°C 66% 17.6 mph NNW28.3 kmh NNW 42.6 mph68.6 kmh 29.65 in1004.1 mb 0.00 in0.0 mm 0.00 in0.0 mm 0.00 in0.0 mm
12:20 AM 33.6°F0.9°C 23.5°F-4.7°C 66% 15.5 mph NNW24.9 kmh NNW 32.2 mph51.8 kmh 29.65 in1004.1 mb 0.00 in0.0 mm 0.00 in0.0 mm 0.00 in0.0 mm
12:10 AM 33.8°F1.0°C 23.6°F-4.7°C 66% 16.8 mph NNW27.0 kmh NNW 32.2 mph51.8 kmh 29.65 in1004.1 mb 0.00 in0.0 mm 0.00 in0.0 mm 0.00 in0.0 mm
12:00 AM 33.8°F1.0°C 23.6°F-4.7°C 66% 16.1 mph NNW25.9 kmh NNW 32.2 mph51.8 kmh 29.62 in1003.0 mb 0.00 in0.0 mm 0.00 in0.0 mm 0.00 in0.0 mm